South Washington, Vermont
Current Conditions -  °F | °C
As of 1:51 PM on Saturday 25 Oct 2014 (Local Time) from KMPV Reporting Station
Scattered Clouds Scattered Clouds  
Wind Chill: 56°   Ceiling: Unl
Heat Index: 56°   Visibility: 10mi
Dew Point: 39°   Wind: 3mph
Humidity: 53%   Direction: NA
Pressure: 29.65"   Gusts: NA
Location:  44.0671°N, 72.4216°W
Report Text: KMPV 251751Z AUTO VRB03KT 10SM FEW040 SCT070 13/04 A2965 RMK AO2 SLP046 T01330039 10139 20000 58033 $
Loading
Personal Weather Stations






























Interactive Weather Map
Tropical Storm Tracking
New forecast layout! Learn more

10-Day Weather Forecast

Advertisements
Track Severe Weather on mobile